sensor_id;sensor_type;location;lat;lon;timestamp;temperature;humidity
13744;DHT22;6943;52.368;9.966;2023-09-19T00:00:36;15.50;99.90
13744;DHT22;6943;52.368;9.966;2023-09-19T00:03:06;15.60;99.90
13744;DHT22;6943;52.368;9.966;2023-09-19T00:05:34;15.60;99.90
13744;DHT22;6943;52.368;9.966;2023-09-19T00:08:01;15.70;99.90
13744;DHT22;6943;52.368;9.966;2023-09-19T00:10:32;15.70;99.90
13744;DHT22;6943;52.368;9.966;2023-09-19T00:13:01;15.60;99.90
13744;DHT22;6943;52.368;9.966;2023-09-19T00:15:29;15.60;99.90
13744;DHT22;6943;52.368;9.966;2023-09-19T00:17:55;15.60;99.90
13744;DHT22;6943;52.368;9.966;2023-09-19T00:20:21;15.60;99.90
13744;DHT22;6943;52.368;9.966;2023-09-19T00:22:49;15.60;99.90
13744;DHT22;6943;52.368;9.966;2023-09-19T00:25:18;15.60;99.90
13744;DHT22;6943;52.368;9.966;2023-09-19T00:27:44;15.60;99.90
13744;DHT22;6943;52.368;9.966;2023-09-19T00:30:11;15.60;99.90
13744;DHT22;6943;52.368;9.966;2023-09-19T00:32:45;15.50;99.90
13744;DHT22;6943;52.368;9.966;2023-09-19T00:35:16;15.50;99.90
13744;DHT22;6943;52.368;9.966;2023-09-19T00:37:42;15.50;99.90
13744;DHT22;6943;52.368;9.966;2023-09-19T00:40:09;15.40;99.90
13744;DHT22;6943;52.368;9.966;2023-09-19T00:42:46;15.40;99.90
13744;DHT22;6943;52.368;9.966;2023-09-19T00:45:13;15.40;99.90
13744;DHT22;6943;52.368;9.966;2023-09-19T00:47:49;15.30;99.90
13744;DHT22;6943;52.368;9.966;2023-09-19T00:50:19;15.40;99.90
13744;DHT22;6943;52.368;9.966;2023-09-19T00:52:47;15.40;99.90
13744;DHT22;6943;52.368;9.966;2023-09-19T00:55:15;15.40;99.90
13744;DHT22;6943;52.368;9.966;2023-09-19T00:57:42;15.40;99.90
13744;DHT22;6943;52.368;9.966;2023-09-19T01:00:09;15.50;99.90
13744;DHT22;6943;52.368;9.966;2023-09-19T01:02:43;15.50;99.90
13744;DHT22;6943;52.368;9.966;2023-09-19T01:05:09;16.20;99.90
13744;DHT22;6943;52.368;9.966;2023-09-19T01:07:36;15.50;99.90
13744;DHT22;6943;52.368;9.966;2023-09-19T01:10:07;15.50;99.90
13744;DHT22;6943;52.368;9.966;2023-09-19T01:15:26;15.50;99.90
13744;DHT22;6943;52.368;9.966;2023-09-19T01:18:08;15.50;99.90
13744;DHT22;6943;52.368;9.966;2023-09-19T01:21:03;15.50;99.90
13744;DHT22;6943;52.368;9.966;2023-09-19T01:29:39;15.40;99.90
13744;DHT22;6943;52.368;9.966;2023-09-19T01:32:06;15.30;99.90
13744;DHT22;6943;52.368;9.966;2023-09-19T01:34:47;15.40;99.90
13744;DHT22;6943;52.368;9.966;2023-09-19T01:37:17;15.30;99.90
13744;DHT22;6943;52.368;9.966;2023-09-19T01:39:52;15.30;99.90
13744;DHT22;6943;52.368;9.966;2023-09-19T01:42:41;15.40;99.90
13744;DHT22;6943;52.368;9.966;2023-09-19T01:47:56;15.40;99.90
13744;DHT22;6943;52.368;9.966;2023-09-19T01:50:29;15.50;99.90
13744;DHT22;6943;52.368;9.966;2023-09-19T01:53:10;15.50;99.90
13744;DHT22;6943;52.368;9.966;2023-09-19T01:55:44;15.50;99.90
13744;DHT22;6943;52.368;9.966;2023-09-19T01:58:34;15.50;99.90
13744;DHT22;6943;52.368;9.966;2023-09-19T02:01:03;15.50;99.90
13744;DHT22;6943;52.368;9.966;2023-09-19T02:03:31;15.50;99.90
13744;DHT22;6943;52.368;9.966;2023-09-19T02:05:58;15.50;99.90
13744;DHT22;6943;52.368;9.966;2023-09-19T02:08:24;15.50;99.90
13744;DHT22;6943;52.368;9.966;2023-09-19T02:10:50;15.50;99.90
13744;DHT22;6943;52.368;9.966;2023-09-19T02:13:17;15.50;99.90
13744;DHT22;6943;52.368;9.966;2023-09-19T02:15:44;15.50;99.90
13744;DHT22;6943;52.368;9.966;2023-09-19T02:18:10;15.50;99.90
13744;DHT22;6943;52.368;9.966;2023-09-19T02:20:37;15.50;99.90
13744;DHT22;6943;52.368;9.966;2023-09-19T02:23:03;15.50;99.90
13744;DHT22;6943;52.368;9.966;2023-09-19T02:25:29;15.40;99.90
13744;DHT22;6943;52.368;9.966;2023-09-19T02:27:54;15.40;99.90
13744;DHT22;6943;52.368;9.966;2023-09-19T02:30:27;15.40;99.90
13744;DHT22;6943;52.368;9.966;2023-09-19T02:32:52;15.40;99.90
13744;DHT22;6943;52.368;9.966;2023-09-19T02:35:18;15.50;99.90
13744;DHT22;6943;52.368;9.966;2023-09-19T02:37:45;15.50;99.90
13744;DHT22;6943;52.368;9.966;2023-09-19T02:40:11;15.50;99.90
13744;DHT22;6943;52.368;9.966;2023-09-19T02:42:48;15.60;99.90
13744;DHT22;6943;52.368;9.966;2023-09-19T02:45:18;15.80;70.10
13744;DHT22;6943;52.368;9.966;2023-09-19T02:47:45;15.90;1.00
13744;DHT22;6943;52.368;9.966;2023-09-19T02:50:11;15.90;1.00
13744;DHT22;6943;52.368;9.966;2023-09-19T02:52:37;15.80;1.00
13744;DHT22;6943;52.368;9.966;2023-09-19T02:55:03;15.70;1.00
13744;DHT22;6943;52.368;9.966;2023-09-19T02:57:31;15.60;1.00
13744;DHT22;6943;52.368;9.966;2023-09-19T02:59:59;15.50;1.00
13744;DHT22;6943;52.368;9.966;2023-09-19T03:02:26;15.40;1.00
13744;DHT22;6943;52.368;9.966;2023-09-19T03:04:52;15.30;1.00
13744;DHT22;6943;52.368;9.966;2023-09-19T03:07:18;15.30;1.00
13744;DHT22;6943;52.368;9.966;2023-09-19T03:09:43;15.20;1.00
13744;DHT22;6943;52.368;9.966;2023-09-19T03:12:10;15.20;1.00
13744;DHT22;6943;52.368;9.966;2023-09-19T03:14:36;15.10;1.00
13744;DHT22;6943;52.368;9.966;2023-09-19T03:17:02;15.10;1.00
13744;DHT22;6943;52.368;9.966;2023-09-19T03:19:31;15.10;1.00
13744;DHT22;6943;52.368;9.966;2023-09-19T03:21:59;15.00;1.00
13744;DHT22;6943;52.368;9.966;2023-09-19T03:24:24;15.00;1.00
13744;DHT22;6943;52.368;9.966;2023-09-19T03:26:50;15.00;1.00
13744;DHT22;6943;52.368;9.966;2023-09-19T03:29:16;14.90;1.00
13744;DHT22;6943;52.368;9.966;2023-09-19T03:31:42;15.00;1.00
13744;DHT22;6943;52.368;9.966;2023-09-19T03:34:08;15.00;1.00
13744;DHT22;6943;52.368;9.966;2023-09-19T03:36:34;15.00;1.00
13744;DHT22;6943;52.368;9.966;2023-09-19T03:39:00;15.00;99.90
13744;DHT22;6943;52.368;9.966;2023-09-19T03:41:25;15.00;99.90
13744;DHT22;6943;52.368;9.966;2023-09-19T03:43:51;15.00;99.90
13744;DHT22;6943;52.368;9.966;2023-09-19T03:46:16;14.90;99.90
13744;DHT22;6943;52.368;9.966;2023-09-19T03:48:42;14.90;99.90
13744;DHT22;6943;52.368;9.966;2023-09-19T03:51:08;14.90;99.90
13744;DHT22;6943;52.368;9.966;2023-09-19T03:53:33;14.90;99.90
13744;DHT22;6943;52.368;9.966;2023-09-19T03:55:59;14.80;99.90
13744;DHT22;6943;52.368;9.966;2023-09-19T03:58:25;14.80;1.00
13744;DHT22;6943;52.368;9.966;2023-09-19T04:00:55;14.70;1.00
13744;DHT22;6943;52.368;9.966;2023-09-19T04:03:21;14.70;1.00
13744;DHT22;6943;52.368;9.966;2023-09-19T04:05:47;14.70;1.00
13744;DHT22;6943;52.368;9.966;2023-09-19T04:08:15;14.60;1.00
13744;DHT22;6943;52.368;9.966;2023-09-19T04:10:43;14.60;1.00
13744;DHT22;6943;52.368;9.966;2023-09-19T04:13:10;14.60;1.00
13744;DHT22;6943;52.368;9.966;2023-09-19T04:15:36;14.60;1.00
13744;DHT22;6943;52.368;9.966;2023-09-19T04:18:03;14.60;1.00
13744;DHT22;6943;52.368;9.966;2023-09-19T04:20:29;14.60;1.00
13744;DHT22;6943;52.368;9.966;2023-09-19T04:22:54;14.60;1.00
13744;DHT22;6943;52.368;9.966;2023-09-19T04:25:20;14.60;1.00
13744;DHT22;6943;52.368;9.966;2023-09-19T04:27:46;14.70;1.00
13744;DHT22;6943;52.368;9.966;2023-09-19T04:30:14;14.70;1.00
13744;DHT22;6943;52.368;9.966;2023-09-19T04:32:40;14.80;1.00
13744;DHT22;6943;52.368;9.966;2023-09-19T04:35:10;14.90;1.00
13744;DHT22;6943;52.368;9.966;2023-09-19T04:37:37;14.90;1.00
13744;DHT22;6943;52.368;9.966;2023-09-19T04:40:05;14.80;1.00
13744;DHT22;6943;52.368;9.966;2023-09-19T04:42:31;14.80;1.00
13744;DHT22;6943;52.368;9.966;2023-09-19T04:44:57;14.70;1.00
13744;DHT22;6943;52.368;9.966;2023-09-19T04:47:22;14.70;1.00
13744;DHT22;6943;52.368;9.966;2023-09-19T04:49:48;14.60;1.00
13744;DHT22;6943;52.368;9.966;2023-09-19T04:52:13;14.60;1.00
13744;DHT22;6943;52.368;9.966;2023-09-19T04:54:40;14.70;1.00
13744;DHT22;6943;52.368;9.966;2023-09-19T04:57:06;14.60;1.00
13744;DHT22;6943;52.368;9.966;2023-09-19T04:59:32;14.60;1.00
13744;DHT22;6943;52.368;9.966;2023-09-19T05:01:58;14.50;1.00
13744;DHT22;6943;52.368;9.966;2023-09-19T05:04:24;14.50;1.00
13744;DHT22;6943;52.368;9.966;2023-09-19T05:06:49;14.50;1.00
13744;DHT22;6943;52.368;9.966;2023-09-19T05:09:16;14.60;1.00
13744;DHT22;6943;52.368;9.966;2023-09-19T05:11:45;14.60;1.00
13744;DHT22;6943;52.368;9.966;2023-09-19T05:14:11;14.60;1.00
13744;DHT22;6943;52.368;9.966;2023-09-19T05:16:37;14.60;1.00
13744;DHT22;6943;52.368;9.966;2023-09-19T05:19:02;14.60;1.00
13744;DHT22;6943;52.368;9.966;2023-09-19T05:21:28;14.50;1.00
13744;DHT22;6943;52.368;9.966;2023-09-19T05:23:55;14.60;1.00
13744;DHT22;6943;52.368;9.966;2023-09-19T05:26:21;14.60;1.00
13744;DHT22;6943;52.368;9.966;2023-09-19T05:28:47;14.60;1.00
13744;DHT22;6943;52.368;9.966;2023-09-19T05:31:15;14.60;1.00
13744;DHT22;6943;52.368;9.966;2023-09-19T05:33:42;14.70;1.00
13744;DHT22;6943;52.368;9.966;2023-09-19T05:36:08;14.80;1.00
13744;DHT22;6943;52.368;9.966;2023-09-19T05:38:36;14.90;1.00
13744;DHT22;6943;52.368;9.966;2023-09-19T05:41:02;14.90;1.00
13744;DHT22;6943;52.368;9.966;2023-09-19T05:43:27;15.00;1.00
13744;DHT22;6943;52.368;9.966;2023-09-19T05:45:53;15.00;99.90
13744;DHT22;6943;52.368;9.966;2023-09-19T05:48:21;15.10;99.90
13744;DHT22;6943;52.368;9.966;2023-09-19T05:50:47;15.30;1.00
13744;DHT22;6943;52.368;9.966;2023-09-19T05:53:14;15.40;1.00
13744;DHT22;6943;52.368;9.966;2023-09-19T05:55:40;15.50;99.90
13744;DHT22;6943;52.368;9.966;2023-09-19T05:58:06;15.60;1.00
13744;DHT22;6943;52.368;9.966;2023-09-19T06:00:31;15.70;99.90
13744;DHT22;6943;52.368;9.966;2023-09-19T06:02:58;16.20;99.90
13744;DHT22;6943;52.368;9.966;2023-09-19T06:05:25;17.40;1.00
13744;DHT22;6943;52.368;9.966;2023-09-19T06:07:52;18.90;1.00
13744;DHT22;6943;52.368;9.966;2023-09-19T06:10:18;19.80;1.00
13744;DHT22;6943;52.368;9.966;2023-09-19T06:12:46;20.40;99.90
13744;DHT22;6943;52.368;9.966;2023-09-19T06:15:15;20.20;99.90
13744;DHT22;6943;52.368;9.966;2023-09-19T06:17:54;20.50;99.90
13744;DHT22;6943;52.368;9.966;2023-09-19T06:20:21;21.50;1.00
13744;DHT22;6943;52.368;9.966;2023-09-19T06:22:48;21.70;1.00
13744;DHT22;6943;52.368;9.966;2023-09-19T06:25:15;22.90;1.00
13744;DHT22;6943;52.368;9.966;2023-09-19T06:27:48;23.90;1.00
13744;DHT22;6943;52.368;9.966;2023-09-19T06:30:14;24.70;1.00
13744;DHT22;6943;52.368;9.966;2023-09-19T06:32:41;25.20;1.00
13744;DHT22;6943;52.368;9.966;2023-09-19T06:35:13;25.40;1.00
13744;DHT22;6943;52.368;9.966;2023-09-19T06:37:40;25.60;1.00
13744;DHT22;6943;52.368;9.966;2023-09-19T06:42:34;25.80;1.00
13744;DHT22;6943;52.368;9.966;2023-09-19T06:45:00;26.10;99.90
13744;DHT22;6943;52.368;9.966;2023-09-19T06:47:26;26.60;99.90
13744;DHT22;6943;52.368;9.966;2023-09-19T06:49:51;27.20;99.90
13744;DHT22;6943;52.368;9.966;2023-09-19T06:52:17;27.80;99.90
13744;DHT22;6943;52.368;9.966;2023-09-19T06:54:46;27.90;99.90
13744;DHT22;6943;52.368;9.966;2023-09-19T06:57:12;27.90;99.90
13744;DHT22;6943;52.368;9.966;2023-09-19T06:59:39;28.50;99.90
13744;DHT22;6943;52.368;9.966;2023-09-19T07:02:05;28.70;99.90
13744;DHT22;6943;52.368;9.966;2023-09-19T07:04:31;29.20;99.90
13744;DHT22;6943;52.368;9.966;2023-09-19T07:06:57;29.60;99.90
13744;DHT22;6943;52.368;9.966;2023-09-19T07:09:24;29.60;99.90
13744;DHT22;6943;52.368;9.966;2023-09-19T07:11:52;29.50;99.90
13744;DHT22;6943;52.368;9.966;2023-09-19T07:14:18;29.50;99.90
13744;DHT22;6943;52.368;9.966;2023-09-19T07:16:44;30.20;99.90
13744;DHT22;6943;52.368;9.966;2023-09-19T07:19:10;30.20;99.90
13744;DHT22;6943;52.368;9.966;2023-09-19T07:21:36;30.60;99.90
13744;DHT22;6943;52.368;9.966;2023-09-19T07:24:04;30.40;99.90
13744;DHT22;6943;52.368;9.966;2023-09-19T07:26:29;30.40;99.90
13744;DHT22;6943;52.368;9.966;2023-09-19T07:28:56;30.10;99.90
13744;DHT22;6943;52.368;9.966;2023-09-19T07:31:22;30.60;99.90
13744;DHT22;6943;52.368;9.966;2023-09-19T07:33:48;30.40;99.90
13744;DHT22;6943;52.368;9.966;2023-09-19T07:36:14;31.10;99.90
13744;DHT22;6943;52.368;9.966;2023-09-19T07:38:40;30.50;99.90
13744;DHT22;6943;52.368;9.966;2023-09-19T07:41:07;30.50;99.90
13744;DHT22;6943;52.368;9.966;2023-09-19T07:43:37;30.00;99.90
13744;DHT22;6943;52.368;9.966;2023-09-19T07:46:06;29.70;99.90
13744;DHT22;6943;52.368;9.966;2023-09-19T07:48:33;29.90;99.90
13744;DHT22;6943;52.368;9.966;2023-09-19T07:51:03;29.50;99.90
13744;DHT22;6943;52.368;9.966;2023-09-19T07:53:29;30.10;99.90
13744;DHT22;6943;52.368;9.966;2023-09-19T07:56:08;28.20;99.90
13744;DHT22;6943;52.368;9.966;2023-09-19T07:58:34;29.00;99.90
13744;DHT22;6943;52.368;9.966;2023-09-19T08:01:07;29.00;99.90
13744;DHT22;6943;52.368;9.966;2023-09-19T08:03:34;28.90;99.90
13744;DHT22;6943;52.368;9.966;2023-09-19T08:06:00;27.80;99.90
13744;DHT22;6943;52.368;9.966;2023-09-19T08:08:27;26.80;99.90
13744;DHT22;6943;52.368;9.966;2023-09-19T08:10:56;26.90;99.90
13744;DHT22;6943;52.368;9.966;2023-09-19T08:13:23;26.80;99.90
13744;DHT22;6943;52.368;9.966;2023-09-19T08:15:48;26.50;99.90
13744;DHT22;6943;52.368;9.966;2023-09-19T08:18:15;25.80;99.90
13744;DHT22;6943;52.368;9.966;2023-09-19T08:20:41;25.40;99.90
13744;DHT22;6943;52.368;9.966;2023-09-19T08:23:11;25.00;99.90
13744;DHT22;6943;52.368;9.966;2023-09-19T08:25:37;24.80;99.90
13744;DHT22;6943;52.368;9.966;2023-09-19T08:28:05;24.00;99.90
13744;DHT22;6943;52.368;9.966;2023-09-19T08:30:34;23.50;99.90
13744;DHT22;6943;52.368;9.966;2023-09-19T08:33:00;23.90;99.90
13744;DHT22;6943;52.368;9.966;2023-09-19T08:35:27;24.10;99.90
13744;DHT22;6943;52.368;9.966;2023-09-19T08:37:52;24.00;99.90
13744;DHT22;6943;52.368;9.966;2023-09-19T08:40:18;24.00;99.90
13744;DHT22;6943;52.368;9.966;2023-09-19T08:42:56;23.90;99.90
13744;DHT22;6943;52.368;9.966;2023-09-19T08:45:23;24.50;99.90
13744;DHT22;6943;52.368;9.966;2023-09-19T08:48:22;25.10;99.90
13744;DHT22;6943;52.368;9.966;2023-09-19T08:51:02;24.90;99.90
13744;DHT22;6943;52.368;9.966;2023-09-19T08:56:10;24.60;99.90
13744;DHT22;6943;52.368;9.966;2023-09-19T08:58:44;24.90;99.90
13744;DHT22;6943;52.368;9.966;2023-09-19T09:01:14;24.90;99.90
13744;DHT22;6943;52.368;9.966;2023-09-19T09:03:40;25.10;99.90
13744;DHT22;6943;52.368;9.966;2023-09-19T09:06:08;24.40;99.90
13744;DHT22;6943;52.368;9.966;2023-09-19T09:08:40;24.60;99.90
13744;DHT22;6943;52.368;9.966;2023-09-19T09:11:06;24.80;99.90
13744;DHT22;6943;52.368;9.966;2023-09-19T09:13:34;24.70;99.90
13744;DHT22;6943;52.368;9.966;2023-09-19T09:16:00;24.20;99.90
13744;DHT22;6943;52.368;9.966;2023-09-19T09:18:29;24.10;99.90
13744;DHT22;6943;52.368;9.966;2023-09-19T09:20:57;24.20;99.90
13744;DHT22;6943;52.368;9.966;2023-09-19T09:23:23;23.60;99.90
13744;DHT22;6943;52.368;9.966;2023-09-19T09:25:52;23.10;99.90
13744;DHT22;6943;52.368;9.966;2023-09-19T09:28:23;23.10;99.90
13744;DHT22;6943;52.368;9.966;2023-09-19T09:30:49;22.80;99.90
13744;DHT22;6943;52.368;9.966;2023-09-19T09:33:16;22.80;99.90
13744;DHT22;6943;52.368;9.966;2023-09-19T09:35:52;22.60;99.90
13744;DHT22;6943;52.368;9.966;2023-09-19T09:38:21;22.50;99.90
13744;DHT22;6943;52.368;9.966;2023-09-19T09:40:49;22.40;99.90
13744;DHT22;6943;52.368;9.966;2023-09-19T09:43:35;22.10;99.90
13744;DHT22;6943;52.368;9.966;2023-09-19T09:46:18;22.10;99.90
13744;DHT22;6943;52.368;9.966;2023-09-19T09:49:07;21.90;99.90
13744;DHT22;6943;52.368;9.966;2023-09-19T09:51:51;22.10;99.90
13744;DHT22;6943;52.368;9.966;2023-09-19T09:54:26;21.90;99.90
13744;DHT22;6943;52.368;9.966;2023-09-19T09:57:08;21.80;99.90
13744;DHT22;6943;52.368;9.966;2023-09-19T09:59:52;21.80;99.90
13744;DHT22;6943;52.368;9.966;2023-09-19T10:02:29;21.80;99.90
13744;DHT22;6943;52.368;9.966;2023-09-19T10:07:49;21.60;99.90
13744;DHT22;6943;52.368;9.966;2023-09-19T10:10:38;21.80;99.90
13744;DHT22;6943;52.368;9.966;2023-09-19T10:13:19;21.60;99.90
13744;DHT22;6943;52.368;9.966;2023-09-19T10:15:49;21.70;99.90
13744;DHT22;6943;52.368;9.966;2023-09-19T10:18:25;21.60;99.90
13744;DHT22;6943;52.368;9.966;2023-09-19T10:20:52;21.70;99.90
13744;DHT22;6943;52.368;9.966;2023-09-19T10:23:19;21.80;99.90
13744;DHT22;6943;52.368;9.966;2023-09-19T10:25:49;21.70;99.90
13744;DHT22;6943;52.368;9.966;2023-09-19T10:28:17;21.70;99.90
13744;DHT22;6943;52.368;9.966;2023-09-19T10:30:48;21.80;99.90
13744;DHT22;6943;52.368;9.966;2023-09-19T10:33:23;21.70;99.90
13744;DHT22;6943;52.368;9.966;2023-09-19T10:35:52;21.60;99.90
13744;DHT22;6943;52.368;9.966;2023-09-19T10:38:24;21.70;99.90
13744;DHT22;6943;52.368;9.966;2023-09-19T10:40:51;21.50;99.90
13744;DHT22;6943;52.368;9.966;2023-09-19T10:43:19;21.70;99.90
13744;DHT22;6943;52.368;9.966;2023-09-19T10:45:47;21.60;99.90
13744;DHT22;6943;52.368;9.966;2023-09-19T10:48:15;21.60;99.90
13744;DHT22;6943;52.368;9.966;2023-09-19T10:54:01;21.60;99.90
13744;DHT22;6943;52.368;9.966;2023-09-19T10:56:33;21.60;99.90
13744;DHT22;6943;52.368;9.966;2023-09-19T10:59:11;21.50;99.90
13744;DHT22;6943;52.368;9.966;2023-09-19T11:01:53;21.40;99.90
13744;DHT22;6943;52.368;9.966;2023-09-19T11:04:35;21.40;99.90
13744;DHT22;6943;52.368;9.966;2023-09-19T11:07:08;21.40;99.90
13744;DHT22;6943;52.368;9.966;2023-09-19T11:09:51;21.20;99.90
13744;DHT22;6943;52.368;9.966;2023-09-19T11:14:56;21.20;99.90
13744;DHT22;6943;52.368;9.966;2023-09-19T11:30:50;21.70;99.90
13744;DHT22;6943;52.368;9.966;2023-09-19T11:43:46;21.70;99.90
13744;DHT22;6943;52.368;9.966;2023-09-19T11:46:12;21.40;99.90
13744;DHT22;6943;52.368;9.966;2023-09-19T11:48:42;21.60;99.90
13744;DHT22;6943;52.368;9.966;2023-09-19T11:51:13;21.80;99.90
13744;DHT22;6943;52.368;9.966;2023-09-19T11:53:47;21.90;99.90
13744;DHT22;6943;52.368;9.966;2023-09-19T11:56:19;21.60;99.90
13744;DHT22;6943;52.368;9.966;2023-09-19T11:58:47;21.70;99.90
13744;DHT22;6943;52.368;9.966;2023-09-19T12:01:20;21.70;99.90
13744;DHT22;6943;52.368;9.966;2023-09-19T12:03:47;21.80;99.90
13744;DHT22;6943;52.368;9.966;2023-09-19T12:06:18;21.80;99.90
13744;DHT22;6943;52.368;9.966;2023-09-19T12:08:44;21.40;99.90
13744;DHT22;6943;52.368;9.966;2023-09-19T12:11:15;21.50;99.90
13744;DHT22;6943;52.368;9.966;2023-09-19T12:13:48;21.60;99.90
13744;DHT22;6943;52.368;9.966;2023-09-19T12:16:18;21.70;99.90
13744;DHT22;6943;52.368;9.966;2023-09-19T12:18:47;21.30;99.90
13744;DHT22;6943;52.368;9.966;2023-09-19T12:21:29;21.40;99.90
13744;DHT22;6943;52.368;9.966;2023-09-19T12:26:44;21.70;99.90
13744;DHT22;6943;52.368;9.966;2023-09-19T12:29:20;21.60;99.90
13744;DHT22;6943;52.368;9.966;2023-09-19T12:31:54;21.40;99.90
13744;DHT22;6943;52.368;9.966;2023-09-19T12:34:32;21.30;99.90
13744;DHT22;6943;52.368;9.966;2023-09-19T12:37:10;21.60;99.90
13744;DHT22;6943;52.368;9.966;2023-09-19T12:39:53;21.70;99.90
13744;DHT22;6943;52.368;9.966;2023-09-19T12:42:22;21.70;99.90
13744;DHT22;6943;52.368;9.966;2023-09-19T12:44:49;21.30;99.90
13744;DHT22;6943;52.368;9.966;2023-09-19T12:47:20;21.40;99.90
13744;DHT22;6943;52.368;9.966;2023-09-19T12:52:40;21.60;99.90
13744;DHT22;6943;52.368;9.966;2023-09-19T12:55:05;21.70;99.90
13744;DHT22;6943;52.368;9.966;2023-09-19T12:57:36;21.70;99.90
13744;DHT22;6943;52.368;9.966;2023-09-19T13:00:05;21.70;99.90
13744;DHT22;6943;52.368;9.966;2023-09-19T13:02:37;21.70;99.90
13744;DHT22;6943;52.368;9.966;2023-09-19T13:05:03;21.50;99.90
13744;DHT22;6943;52.368;9.966;2023-09-19T13:07:42;21.70;99.90
13744;DHT22;6943;52.368;9.966;2023-09-19T13:10:09;21.70;99.90
13744;DHT22;6943;52.368;9.966;2023-09-19T13:12:36;21.80;99.90
13744;DHT22;6943;52.368;9.966;2023-09-19T13:15:16;21.70;99.90
13744;DHT22;6943;52.368;9.966;2023-09-19T13:17:49;21.60;99.90
13744;DHT22;6943;52.368;9.966;2023-09-19T13:20:27;21.70;99.90
13744;DHT22;6943;52.368;9.966;2023-09-19T13:22:54;21.70;99.90
13744;DHT22;6943;52.368;9.966;2023-09-19T13:25:23;21.90;99.90
13744;DHT22;6943;52.368;9.966;2023-09-19T13:27:54;21.90;99.90
13744;DHT22;6943;52.368;9.966;2023-09-19T13:30:22;22.10;99.90
13744;DHT22;6943;52.368;9.966;2023-09-19T13:32:48;22.30;99.90
13744;DHT22;6943;52.368;9.966;2023-09-19T13:35:15;22.30;99.90
13744;DHT22;6943;52.368;9.966;2023-09-19T13:37:41;22.30;99.90
13744;DHT22;6943;52.368;9.966;2023-09-19T13:40:13;22.00;99.90
13744;DHT22;6943;52.368;9.966;2023-09-19T13:42:39;22.20;99.90
13744;DHT22;6943;52.368;9.966;2023-09-19T13:45:06;22.20;99.90
13744;DHT22;6943;52.368;9.966;2023-09-19T13:47:32;22.50;99.90
13744;DHT22;6943;52.368;9.966;2023-09-19T13:49:58;22.50;99.90
13744;DHT22;6943;52.368;9.966;2023-09-19T13:52:24;22.70;99.90
13744;DHT22;6943;52.368;9.966;2023-09-19T13:54:53;22.70;99.90
13744;DHT22;6943;52.368;9.966;2023-09-19T13:57:25;22.50;99.90
13744;DHT22;6943;52.368;9.966;2023-09-19T13:59:54;22.20;99.90
13744;DHT22;6943;52.368;9.966;2023-09-19T14:02:23;22.00;99.90
13744;DHT22;6943;52.368;9.966;2023-09-19T14:04:49;21.90;99.90
13744;DHT22;6943;52.368;9.966;2023-09-19T14:07:15;22.00;99.90
13744;DHT22;6943;52.368;9.966;2023-09-19T14:09:44;22.10;99.90
13744;DHT22;6943;52.368;9.966;2023-09-19T14:12:09;22.20;99.90
13744;DHT22;6943;52.368;9.966;2023-09-19T14:14:35;22.10;99.90
13744;DHT22;6943;52.368;9.966;2023-09-19T14:17:03;21.90;99.90
13744;DHT22;6943;52.368;9.966;2023-09-19T14:19:28;22.00;99.90
13744;DHT22;6943;52.368;9.966;2023-09-19T14:21:54;22.10;99.90
13744;DHT22;6943;52.368;9.966;2023-09-19T14:24:22;22.20;99.90
13744;DHT22;6943;52.368;9.966;2023-09-19T14:26:49;22.10;99.90
13744;DHT22;6943;52.368;9.966;2023-09-19T14:29:15;22.00;99.90
13744;DHT22;6943;52.368;9.966;2023-09-19T14:31:41;21.80;99.90
13744;DHT22;6943;52.368;9.966;2023-09-19T14:34:08;21.70;99.90
13744;DHT22;6943;52.368;9.966;2023-09-19T14:36:37;21.80;99.90
13744;DHT22;6943;52.368;9.966;2023-09-19T14:39:04;21.90;99.90
13744;DHT22;6943;52.368;9.966;2023-09-19T14:41:30;22.00;99.90
13744;DHT22;6943;52.368;9.966;2023-09-19T14:43:57;22.20;99.90
13744;DHT22;6943;52.368;9.966;2023-09-19T14:46:23;22.20;99.90
13744;DHT22;6943;52.368;9.966;2023-09-19T14:48:51;22.40;99.90
13744;DHT22;6943;52.368;9.966;2023-09-19T14:51:16;22.30;99.90
13744;DHT22;6943;52.368;9.966;2023-09-19T14:53:44;22.30;99.90
13744;DHT22;6943;52.368;9.966;2023-09-19T14:56:10;22.10;99.90
13744;DHT22;6943;52.368;9.966;2023-09-19T14:58:37;22.10;99.90
13744;DHT22;6943;52.368;9.966;2023-09-19T15:01:13;22.00;99.90
13744;DHT22;6943;52.368;9.966;2023-09-19T15:03:40;21.90;99.90
13744;DHT22;6943;52.368;9.966;2023-09-19T15:06:11;22.00;99.90
13744;DHT22;6943;52.368;9.966;2023-09-19T15:08:44;21.80;99.90
13744;DHT22;6943;52.368;9.966;2023-09-19T15:11:19;21.70;99.90
13744;DHT22;6943;52.368;9.966;2023-09-19T15:13:46;21.60;99.90
13744;DHT22;6943;52.368;9.966;2023-09-19T15:16:12;21.50;99.90
13744;DHT22;6943;52.368;9.966;2023-09-19T15:18:40;21.40;99.90
13744;DHT22;6943;52.368;9.966;2023-09-19T15:21:08;21.40;99.90
13744;DHT22;6943;52.368;9.966;2023-09-19T15:23:35;21.40;99.90
13744;DHT22;6943;52.368;9.966;2023-09-19T15:26:06;21.50;99.90
13744;DHT22;6943;52.368;9.966;2023-09-19T15:28:32;21.50;99.90
13744;DHT22;6943;52.368;9.966;2023-09-19T15:33:29;21.30;99.90
13744;DHT22;6943;52.368;9.966;2023-09-19T15:36:08;21.10;99.90
13744;DHT22;6943;52.368;9.966;2023-09-19T15:38:57;20.90;99.90
13744;DHT22;6943;52.368;9.966;2023-09-19T15:41:24;20.90;99.90
13744;DHT22;6943;52.368;9.966;2023-09-19T15:43:50;20.80;99.90
13744;DHT22;6943;52.368;9.966;2023-09-19T15:46:15;20.70;99.90
13744;DHT22;6943;52.368;9.966;2023-09-19T15:48:42;20.70;99.90
13744;DHT22;6943;52.368;9.966;2023-09-19T15:51:07;20.70;99.90
13744;DHT22;6943;52.368;9.966;2023-09-19T15:53:44;20.70;99.90
13744;DHT22;6943;52.368;9.966;2023-09-19T15:56:14;20.50;99.90
13744;DHT22;6943;52.368;9.966;2023-09-19T15:58:40;20.40;99.90
13744;DHT22;6943;52.368;9.966;2023-09-19T16:01:07;20.30;99.90
13744;DHT22;6943;52.368;9.966;2023-09-19T16:03:39;20.30;99.90
13744;DHT22;6943;52.368;9.966;2023-09-19T16:06:12;20.20;99.90
13744;DHT22;6943;52.368;9.966;2023-09-19T16:08:48;20.10;99.90
13744;DHT22;6943;52.368;9.966;2023-09-19T16:11:14;20.00;99.90
13744;DHT22;6943;52.368;9.966;2023-09-19T16:13:42;19.90;99.90
13744;DHT22;6943;52.368;9.966;2023-09-19T16:16:08;19.90;99.90
13744;DHT22;6943;52.368;9.966;2023-09-19T16:18:47;20.00;99.90
13744;DHT22;6943;52.368;9.966;2023-09-19T16:21:13;20.00;99.90
13744;DHT22;6943;52.368;9.966;2023-09-19T16:23:39;20.00;99.90
13744;DHT22;6943;52.368;9.966;2023-09-19T16:26:09;19.90;99.90
13744;DHT22;6943;52.368;9.966;2023-09-19T16:28:37;19.90;99.90
13744;DHT22;6943;52.368;9.966;2023-09-19T16:31:03;19.90;99.90
13744;DHT22;6943;52.368;9.966;2023-09-19T16:33:33;19.80;1.00
13744;DHT22;6943;52.368;9.966;2023-09-19T16:35:59;19.70;1.00
13744;DHT22;6943;52.368;9.966;2023-09-19T16:38:26;19.70;1.00
13744;DHT22;6943;52.368;9.966;2023-09-19T16:40:56;19.60;1.00
13744;DHT22;6943;52.368;9.966;2023-09-19T16:43:24;19.60;1.00
13744;DHT22;6943;52.368;9.966;2023-09-19T16:45:57;19.50;1.00
13744;DHT22;6943;52.368;9.966;2023-09-19T16:48:27;19.50;1.00
13744;DHT22;6943;52.368;9.966;2023-09-19T16:50:53;19.50;1.00
13744;DHT22;6943;52.368;9.966;2023-09-19T16:53:20;19.40;1.00
13744;DHT22;6943;52.368;9.966;2023-09-19T16:55:47;19.30;1.00
13744;DHT22;6943;52.368;9.966;2023-09-19T16:58:13;19.30;1.00